sensor_id;sensor_type;location;lat;lon;timestamp;P1;durP1;ratioP1;P2;durP2;ratioP2
68140;SDS011;54941;52.220;104.306;2023-12-22T00:02:18;124.78;;;49.78;;
68140;SDS011;54941;52.220;104.306;2023-12-22T00:04:44;115.38;;;45.85;;
68140;SDS011;54941;52.220;104.306;2023-12-22T00:07:11;115.43;;;43.10;;
68140;SDS011;54941;52.220;104.306;2023-12-22T00:09:38;126.85;;;51.67;;
68140;SDS011;54941;52.220;104.306;2023-12-22T00:12:04;127.03;;;50.65;;
68140;SDS011;54941;52.220;104.306;2023-12-22T00:14:30;122.70;;;44.45;;
68140;SDS011;54941;52.220;104.306;2023-12-22T00:16:58;108.90;;;48.45;;
68140;SDS011;54941;52.220;104.306;2023-12-22T00:19:24;107.70;;;41.65;;
68140;SDS011;54941;52.220;104.306;2023-12-22T00:21:50;125.88;;;48.97;;
68140;SDS011;54941;52.220;104.306;2023-12-22T00:24:17;119.43;;;50.22;;
68140;SDS011;54941;52.220;104.306;2023-12-22T00:26:44;111.85;;;44.30;;
68140;SDS011;54941;52.220;104.306;2023-12-22T00:29:10;114.65;;;46.08;;
68140;SDS011;54941;52.220;104.306;2023-12-22T00:31:36;116.13;;;50.42;;
68140;SDS011;54941;52.220;104.306;2023-12-22T00:34:02;125.13;;;55.17;;
68140;SDS011;54941;52.220;104.306;2023-12-22T00:36:28;118.88;;;49.97;;
68140;SDS011;54941;52.220;104.306;2023-12-22T00:38:54;118.30;;;47.55;;
68140;SDS011;54941;52.220;104.306;2023-12-22T00:41:22;110.18;;;47.72;;
68140;SDS011;54941;52.220;104.306;2023-12-22T00:43:48;112.00;;;43.13;;
68140;SDS011;54941;52.220;104.306;2023-12-22T00:46:14;122.35;;;46.28;;
68140;SDS011;54941;52.220;104.306;2023-12-22T00:48:40;140.77;;;55.72;;
68140;SDS011;54941;52.220;104.306;2023-12-22T00:51:07;125.72;;;53.92;;
68140;SDS011;54941;52.220;104.306;2023-12-22T00:53:33;108.97;;;42.97;;
68140;SDS011;54941;52.220;104.306;2023-12-22T00:56:00;111.40;;;42.97;;
68140;SDS011;54941;52.220;104.306;2023-12-22T00:58:27;117.00;;;47.55;;
68140;SDS011;54941;52.220;104.306;2023-12-22T01:00:54;106.97;;;43.95;;
68140;SDS011;54941;52.220;104.306;2023-12-22T01:03:20;104.63;;;42.08;;
68140;SDS011;54941;52.220;104.306;2023-12-22T01:05:46;94.93;;;40.53;;
68140;SDS011;54941;52.220;104.306;2023-12-22T01:08:12;101.78;;;44.25;;
68140;SDS011;54941;52.220;104.306;2023-12-22T01:10:38;100.82;;;44.47;;
68140;SDS011;54941;52.220;104.306;2023-12-22T01:13:05;104.85;;;42.00;;
68140;SDS011;54941;52.220;104.306;2023-12-22T01:15:32;110.18;;;45.92;;
68140;SDS011;54941;52.220;104.306;2023-12-22T01:17:58;106.47;;;44.80;;
68140;SDS011;54941;52.220;104.306;2023-12-22T01:20:25;107.28;;;42.92;;
68140;SDS011;54941;52.220;104.306;2023-12-22T01:22:51;112.03;;;42.83;;
68140;SDS011;54941;52.220;104.306;2023-12-22T01:25:17;126.72;;;49.30;;
68140;SDS011;54941;52.220;104.306;2023-12-22T01:27:44;114.82;;;47.88;;
68140;SDS011;54941;52.220;104.306;2023-12-22T01:30:10;108.90;;;42.55;;
68140;SDS011;54941;52.220;104.306;2023-12-22T01:32:38;121.85;;;46.63;;
68140;SDS011;54941;52.220;104.306;2023-12-22T01:35:04;118.05;;;47.45;;
68140;SDS011;54941;52.220;104.306;2023-12-22T01:37:31;103.75;;;45.88;;
68140;SDS011;54941;52.220;104.306;2023-12-22T01:39:57;115.68;;;41.20;;
68140;SDS011;54941;52.220;104.306;2023-12-22T01:42:23;97.97;;;42.17;;
68140;SDS011;54941;52.220;104.306;2023-12-22T01:44:50;116.65;;;50.83;;
68140;SDS011;54941;52.220;104.306;2023-12-22T01:47:16;100.68;;;44.72;;
68140;SDS011;54941;52.220;104.306;2023-12-22T01:49:44;105.72;;;39.30;;
68140;SDS011;54941;52.220;104.306;2023-12-22T01:52:10;81.47;;;35.67;;
68140;SDS011;54941;52.220;104.306;2023-12-22T01:54:37;83.47;;;39.42;;
68140;SDS011;54941;52.220;104.306;2023-12-22T01:57:03;74.90;;;33.97;;
68140;SDS011;54941;52.220;104.306;2023-12-22T01:59:30;80.45;;;33.33;;
68140;SDS011;54941;52.220;104.306;2023-12-22T02:01:57;77.07;;;34.13;;
68140;SDS011;54941;52.220;104.306;2023-12-22T02:04:23;69.75;;;30.25;;
68140;SDS011;54941;52.220;104.306;2023-12-22T02:06:53;74.78;;;28.90;;
68140;SDS011;54941;52.220;104.306;2023-12-22T02:09:19;69.80;;;33.65;;
68140;SDS011;54941;52.220;104.306;2023-12-22T02:11:46;69.43;;;31.25;;
68140;SDS011;54941;52.220;104.306;2023-12-22T02:14:12;70.93;;;28.05;;
68140;SDS011;54941;52.220;104.306;2023-12-22T02:16:40;62.50;;;29.20;;
68140;SDS011;54941;52.220;104.306;2023-12-22T02:19:15;59.63;;;27.50;;
68140;SDS011;54941;52.220;104.306;2023-12-22T02:22:04;57.28;;;27.73;;
68140;SDS011;54941;52.220;104.306;2023-12-22T02:24:32;63.03;;;24.85;;
68140;SDS011;54941;52.220;104.306;2023-12-22T02:27:00;69.78;;;32.08;;
68140;SDS011;54941;52.220;104.306;2023-12-22T02:29:30;56.78;;;23.38;;
68140;SDS011;54941;52.220;104.306;2023-12-22T02:32:01;73.88;;;29.48;;
68140;SDS011;54941;52.220;104.306;2023-12-22T02:34:31;75.85;;;34.55;;
68140;SDS011;54941;52.220;104.306;2023-12-22T02:37:02;76.35;;;30.85;;
68140;SDS011;54941;52.220;104.306;2023-12-22T02:39:32;91.00;;;35.88;;
68140;SDS011;54941;52.220;104.306;2023-12-22T02:41:59;75.32;;;30.38;;
68140;SDS011;54941;52.220;104.306;2023-12-22T02:44:25;64.85;;;28.17;;
68140;SDS011;54941;52.220;104.306;2023-12-22T02:46:52;81.68;;;35.65;;
68140;SDS011;54941;52.220;104.306;2023-12-22T02:49:18;66.78;;;31.40;;
68140;SDS011;54941;52.220;104.306;2023-12-22T02:51:45;76.15;;;31.33;;
68140;SDS011;54941;52.220;104.306;2023-12-22T02:54:11;74.10;;;29.48;;
68140;SDS011;54941;52.220;104.306;2023-12-22T02:56:38;91.55;;;40.90;;
68140;SDS011;54941;52.220;104.306;2023-12-22T02:59:05;99.72;;;44.42;;
68140;SDS011;54941;52.220;104.306;2023-12-22T03:01:31;102.43;;;39.67;;
68140;SDS011;54941;52.220;104.306;2023-12-22T03:03:57;107.68;;;46.65;;
68140;SDS011;54941;52.220;104.306;2023-12-22T03:06:23;122.60;;;51.38;;
68140;SDS011;54941;52.220;104.306;2023-12-22T03:08:49;130.38;;;57.38;;
68140;SDS011;54941;52.220;104.306;2023-12-22T03:11:15;113.20;;;45.75;;
68140;SDS011;54941;52.220;104.306;2023-12-22T03:13:43;90.70;;;40.88;;
68140;SDS011;54941;52.220;104.306;2023-12-22T03:16:09;105.45;;;45.38;;
68140;SDS011;54941;52.220;104.306;2023-12-22T03:18:37;104.82;;;38.28;;
68140;SDS011;54941;52.220;104.306;2023-12-22T03:21:03;97.32;;;42.38;;
68140;SDS011;54941;52.220;104.306;2023-12-22T03:23:29;100.88;;;40.80;;
68140;SDS011;54941;52.220;104.306;2023-12-22T03:25:56;96.10;;;39.10;;
68140;SDS011;54941;52.220;104.306;2023-12-22T03:28:22;108.53;;;42.25;;
68140;SDS011;54941;52.220;104.306;2023-12-22T03:30:50;105.32;;;43.30;;
68140;SDS011;54941;52.220;104.306;2023-12-22T03:33:16;87.65;;;36.80;;
68140;SDS011;54941;52.220;104.306;2023-12-22T03:35:42;98.30;;;40.70;;
68140;SDS011;54941;52.220;104.306;2023-12-22T03:38:08;99.25;;;41.40;;
68140;SDS011;54941;52.220;104.306;2023-12-22T03:40:34;107.93;;;40.70;;
68140;SDS011;54941;52.220;104.306;2023-12-22T03:43:01;82.18;;;34.83;;
68140;SDS011;54941;52.220;104.306;2023-12-22T03:45:27;89.65;;;38.83;;
68140;SDS011;54941;52.220;104.306;2023-12-22T03:47:54;92.78;;;38.78;;
68140;SDS011;54941;52.220;104.306;2023-12-22T03:50:21;94.75;;;37.25;;
68140;SDS011;54941;52.220;104.306;2023-12-22T03:52:47;93.57;;;41.38;;
68140;SDS011;54941;52.220;104.306;2023-12-22T03:55:13;95.15;;;37.08;;
68140;SDS011;54941;52.220;104.306;2023-12-22T03:57:39;94.43;;;38.65;;
68140;SDS011;54941;52.220;104.306;2023-12-22T04:00:06;98.57;;;42.20;;
68140;SDS011;54941;52.220;104.306;2023-12-22T04:02:33;91.78;;;37.88;;
68140;SDS011;54941;52.220;104.306;2023-12-22T04:05:00;83.82;;;40.28;;
68140;SDS011;54941;52.220;104.306;2023-12-22T04:07:27;98.72;;;38.80;;
68140;SDS011;54941;52.220;104.306;2023-12-22T04:09:53;103.45;;;41.00;;
68140;SDS011;54941;52.220;104.306;2023-12-22T04:12:19;92.70;;;41.97;;
68140;SDS011;54941;52.220;104.306;2023-12-22T04:14:45;98.40;;;41.08;;
68140;SDS011;54941;52.220;104.306;2023-12-22T04:17:11;89.80;;;36.40;;
68140;SDS011;54941;52.220;104.306;2023-12-22T04:19:38;74.13;;;33.00;;
68140;SDS011;54941;52.220;104.306;2023-12-22T04:22:05;98.47;;;39.53;;
68140;SDS011;54941;52.220;104.306;2023-12-22T04:24:31;96.72;;;42.20;;
68140;SDS011;54941;52.220;104.306;2023-12-22T04:26:58;100.32;;;39.80;;
68140;SDS011;54941;52.220;104.306;2023-12-22T04:29:24;102.30;;;38.90;;
68140;SDS011;54941;52.220;104.306;2023-12-22T04:31:50;103.32;;;41.22;;
68140;SDS011;54941;52.220;104.306;2023-12-22T04:34:16;90.07;;;38.22;;
68140;SDS011;54941;52.220;104.306;2023-12-22T04:36:42;111.43;;;49.17;;
68140;SDS011;54941;52.220;104.306;2023-12-22T04:39:10;98.10;;;38.92;;
68140;SDS011;54941;52.220;104.306;2023-12-22T04:41:36;101.60;;;40.70;;
68140;SDS011;54941;52.220;104.306;2023-12-22T04:44:02;110.68;;;43.97;;
68140;SDS011;54941;52.220;104.306;2023-12-22T04:46:28;96.43;;;44.75;;
68140;SDS011;54941;52.220;104.306;2023-12-22T04:48:55;105.60;;;45.67;;
68140;SDS011;54941;52.220;104.306;2023-12-22T04:51:21;107.43;;;41.70;;
68140;SDS011;54941;52.220;104.306;2023-12-22T04:53:47;93.65;;;36.70;;
68140;SDS011;54941;52.220;104.306;2023-12-22T04:56:15;93.38;;;38.33;;
68140;SDS011;54941;52.220;104.306;2023-12-22T04:58:41;103.75;;;48.97;;
68140;SDS011;54941;52.220;104.306;2023-12-22T05:01:07;94.45;;;37.88;;
68140;SDS011;54941;52.220;104.306;2023-12-22T05:03:33;92.07;;;44.78;;
68140;SDS011;54941;52.220;104.306;2023-12-22T05:06:00;88.45;;;34.83;;
68140;SDS011;54941;52.220;104.306;2023-12-22T05:08:26;89.88;;;34.42;;
68140;SDS011;54941;52.220;104.306;2023-12-22T05:10:52;88.22;;;36.42;;
68140;SDS011;54941;52.220;104.306;2023-12-22T05:13:20;94.68;;;36.80;;
68140;SDS011;54941;52.220;104.306;2023-12-22T05:15:46;78.05;;;33.15;;
68140;SDS011;54941;52.220;104.306;2023-12-22T05:18:12;86.88;;;34.83;;
68140;SDS011;54941;52.220;104.306;2023-12-22T05:20:39;83.90;;;34.40;;
68140;SDS011;54941;52.220;104.306;2023-12-22T05:23:05;87.13;;;41.55;;
68140;SDS011;54941;52.220;104.306;2023-12-22T05:25:31;103.78;;;46.83;;
68140;SDS011;54941;52.220;104.306;2023-12-22T05:27:57;103.07;;;43.80;;
68140;SDS011;54941;52.220;104.306;2023-12-22T05:30:25;114.72;;;47.60;;
68140;SDS011;54941;52.220;104.306;2023-12-22T05:32:51;112.78;;;46.03;;
68140;SDS011;54941;52.220;104.306;2023-12-22T05:35:17;91.90;;;39.17;;
68140;SDS011;54941;52.220;104.306;2023-12-22T05:37:44;84.53;;;37.80;;
68140;SDS011;54941;52.220;104.306;2023-12-22T05:40:10;100.65;;;41.15;;
68140;SDS011;54941;52.220;104.306;2023-12-22T05:42:36;97.97;;;46.42;;
68140;SDS011;54941;52.220;104.306;2023-12-22T05:45:02;113.32;;;46.90;;
68140;SDS011;54941;52.220;104.306;2023-12-22T05:47:31;103.03;;;41.42;;
68140;SDS011;54941;52.220;104.306;2023-12-22T05:49:57;90.38;;;43.38;;
68140;SDS011;54941;52.220;104.306;2023-12-22T05:52:23;100.72;;;39.72;;
68140;SDS011;54941;52.220;104.306;2023-12-22T05:54:49;105.38;;;43.63;;
68140;SDS011;54941;52.220;104.306;2023-12-22T05:57:15;113.97;;;45.67;;
68140;SDS011;54941;52.220;104.306;2023-12-22T05:59:42;108.40;;;47.80;;
68140;SDS011;54941;52.220;104.306;2023-12-22T06:02:08;102.03;;;45.78;;
68140;SDS011;54941;52.220;104.306;2023-12-22T06:04:36;95.65;;;39.20;;
68140;SDS011;54941;52.220;104.306;2023-12-22T06:07:02;113.90;;;51.50;;
68140;SDS011;54941;52.220;104.306;2023-12-22T06:09:28;116.22;;;50.97;;
68140;SDS011;54941;52.220;104.306;2023-12-22T06:11:54;111.03;;;49.42;;
68140;SDS011;54941;52.220;104.306;2023-12-22T06:14:20;106.93;;;44.80;;
68140;SDS011;54941;52.220;104.306;2023-12-22T06:16:47;109.57;;;43.75;;
68140;SDS011;54941;52.220;104.306;2023-12-22T06:19:13;102.45;;;39.42;;
68140;SDS011;54941;52.220;104.306;2023-12-22T06:21:40;96.43;;;41.17;;
68140;SDS011;54941;52.220;104.306;2023-12-22T06:24:07;106.22;;;46.45;;
68140;SDS011;54941;52.220;104.306;2023-12-22T06:26:33;101.95;;;43.28;;
68140;SDS011;54941;52.220;104.306;2023-12-22T06:28:59;102.68;;;42.10;;
68140;SDS011;54941;52.220;104.306;2023-12-22T06:31:25;109.90;;;44.85;;
68140;SDS011;54941;52.220;104.306;2023-12-22T06:33:52;123.15;;;50.40;;
68140;SDS011;54941;52.220;104.306;2023-12-22T06:36:19;106.90;;;44.00;;
68140;SDS011;54941;52.220;104.306;2023-12-22T06:38:46;98.07;;;40.33;;
68140;SDS011;54941;52.220;104.306;2023-12-22T06:41:18;109.80;;;46.47;;
68140;SDS011;54941;52.220;104.306;2023-12-22T06:43:45;117.63;;;47.22;;
68140;SDS011;54941;52.220;104.306;2023-12-22T06:46:14;117.70;;;45.25;;
68140;SDS011;54941;52.220;104.306;2023-12-22T06:48:40;100.45;;;46.72;;
68140;SDS011;54941;52.220;104.306;2023-12-22T06:51:06;112.95;;;50.67;;
68140;SDS011;54941;52.220;104.306;2023-12-22T06:53:33;117.55;;;51.67;;
68140;SDS011;54941;52.220;104.306;2023-12-22T06:56:00;115.68;;;47.17;;
68140;SDS011;54941;52.220;104.306;2023-12-22T06:58:26;115.60;;;47.10;;
68140;SDS011;54941;52.220;104.306;2023-12-22T07:00:53;122.18;;;53.55;;
68140;SDS011;54941;52.220;104.306;2023-12-22T07:03:19;115.43;;;49.65;;
68140;SDS011;54941;52.220;104.306;2023-12-22T07:05:45;113.18;;;47.15;;
68140;SDS011;54941;52.220;104.306;2023-12-22T07:08:11;115.03;;;46.30;;
68140;SDS011;54941;52.220;104.306;2023-12-22T07:10:37;118.28;;;47.45;;
68140;SDS011;54941;52.220;104.306;2023-12-22T07:13:05;99.78;;;44.05;;
68140;SDS011;54941;52.220;104.306;2023-12-22T07:15:31;123.20;;;46.88;;
68140;SDS011;54941;52.220;104.306;2023-12-22T07:17:57;117.63;;;49.47;;
68140;SDS011;54941;52.220;104.306;2023-12-22T07:20:24;109.82;;;46.03;;
68140;SDS011;54941;52.220;104.306;2023-12-22T07:22:50;115.88;;;47.72;;
68140;SDS011;54941;52.220;104.306;2023-12-22T07:25:18;103.10;;;43.50;;
68140;SDS011;54941;52.220;104.306;2023-12-22T07:27:44;111.38;;;47.20;;
68140;SDS011;54941;52.220;104.306;2023-12-22T07:30:12;115.57;;;46.45;;
68140;SDS011;54941;52.220;104.306;2023-12-22T07:32:39;113.28;;;46.78;;
68140;SDS011;54941;52.220;104.306;2023-12-22T07:35:05;116.65;;;47.83;;
68140;SDS011;54941;52.220;104.306;2023-12-22T07:37:32;108.53;;;43.78;;
68140;SDS011;54941;52.220;104.306;2023-12-22T07:40:00;112.93;;;48.88;;
68140;SDS011;54941;52.220;104.306;2023-12-22T07:42:26;107.30;;;47.75;;
68140;SDS011;54941;52.220;104.306;2023-12-22T07:44:53;96.05;;;42.28;;
68140;SDS011;54941;52.220;104.306;2023-12-22T07:47:20;93.95;;;37.72;;
68140;SDS011;54941;52.220;104.306;2023-12-22T07:49:46;102.50;;;39.55;;
68140;SDS011;54941;52.220;104.306;2023-12-22T07:52:13;93.70;;;40.88;;
68140;SDS011;54941;52.220;104.306;2023-12-22T07:54:39;96.53;;;40.47;;
68140;SDS011;54941;52.220;104.306;2023-12-22T07:57:05;97.28;;;39.33;;
68140;SDS011;54941;52.220;104.306;2023-12-22T07:59:31;94.88;;;40.20;;
68140;SDS011;54941;52.220;104.306;2023-12-22T08:01:57;96.07;;;38.22;;
68140;SDS011;54941;52.220;104.306;2023-12-22T08:04:25;95.65;;;39.80;;
68140;SDS011;54941;52.220;104.306;2023-12-22T08:06:51;97.20;;;42.10;;
68140;SDS011;54941;52.220;104.306;2023-12-22T08:09:17;111.03;;;47.22;;
68140;SDS011;54941;52.220;104.306;2023-12-22T08:11:43;101.38;;;41.83;;
68140;SDS011;54941;52.220;104.306;2023-12-22T08:14:10;105.47;;;47.80;;
68140;SDS011;54941;52.220;104.306;2023-12-22T08:16:36;101.78;;;44.33;;
68140;SDS011;54941;52.220;104.306;2023-12-22T08:19:02;107.32;;;45.58;;
68140;SDS011;54941;52.220;104.306;2023-12-22T08:21:30;113.88;;;42.55;;
68140;SDS011;54941;52.220;104.306;2023-12-22T08:23:56;113.95;;;46.17;;
68140;SDS011;54941;52.220;104.306;2023-12-22T08:26:22;111.30;;;44.92;;
68140;SDS011;54941;52.220;104.306;2023-12-22T08:28:48;110.22;;;44.40;;
68140;SDS011;54941;52.220;104.306;2023-12-22T08:31:14;113.03;;;45.03;;
68140;SDS011;54941;52.220;104.306;2023-12-22T08:33:40;112.10;;;48.33;;
68140;SDS011;54941;52.220;104.306;2023-12-22T08:36:07;115.90;;;50.00;;
68140;SDS011;54941;52.220;104.306;2023-12-22T08:38:34;118.22;;;50.47;;
68140;SDS011;54941;52.220;104.306;2023-12-22T08:41:01;113.90;;;45.90;;
68140;SDS011;54941;52.220;104.306;2023-12-22T08:43:27;108.55;;;50.83;;
68140;SDS011;54941;52.220;104.306;2023-12-22T08:45:53;128.90;;;57.95;;
68140;SDS011;54941;52.220;104.306;2023-12-22T08:48:19;127.63;;;55.63;;
68140;SDS011;54941;52.220;104.306;2023-12-22T08:50:45;134.15;;;59.63;;
68140;SDS011;54941;52.220;104.306;2023-12-22T08:53:12;134.68;;;62.13;;
68140;SDS011;54941;52.220;104.306;2023-12-22T08:55:39;143.05;;;59.33;;
68140;SDS011;54941;52.220;104.306;2023-12-22T08:58:05;131.95;;;60.42;;
68140;SDS011;54941;52.220;104.306;2023-12-22T09:00:32;142.85;;;59.63;;
68140;SDS011;54941;52.220;104.306;2023-12-22T09:02:58;124.30;;;56.17;;
68140;SDS011;54941;52.220;104.306;2023-12-22T09:05:24;128.05;;;56.40;;
68140;SDS011;54941;52.220;104.306;2023-12-22T09:07:50;146.20;;;64.82;;
68140;SDS011;54941;52.220;104.306;2023-12-22T09:10:16;138.50;;;63.80;;
68140;SDS011;54941;52.220;104.306;2023-12-22T09:12:45;130.95;;;58.05;;
68140;SDS011;54941;52.220;104.306;2023-12-22T09:15:11;130.88;;;65.25;;
68140;SDS011;54941;52.220;104.306;2023-12-22T09:17:37;154.43;;;67.25;;
68140;SDS011;54941;52.220;104.306;2023-12-22T09:20:04;155.30;;;70.28;;
68140;SDS011;54941;52.220;104.306;2023-12-22T09:22:31;132.77;;;55.22;;
68140;SDS011;54941;52.220;104.306;2023-12-22T09:24:57;157.13;;;71.78;;
68140;SDS011;54941;52.220;104.306;2023-12-22T09:27:23;155.50;;;60.20;;
68140;SDS011;54941;52.220;104.306;2023-12-22T09:29:51;142.80;;;58.65;;
68140;SDS011;54941;52.220;104.306;2023-12-22T09:32:17;142.07;;;66.03;;
68140;SDS011;54941;52.220;104.306;2023-12-22T09:34:43;137.30;;;59.92;;
68140;SDS011;54941;52.220;104.306;2023-12-22T09:37:09;128.90;;;55.88;;
68140;SDS011;54941;52.220;104.306;2023-12-22T09:39:35;142.70;;;57.25;;
68140;SDS011;54941;52.220;104.306;2023-12-22T09:42:01;138.25;;;59.85;;
68140;SDS011;54941;52.220;104.306;2023-12-22T09:44:29;133.88;;;58.60;;
68140;SDS011;54941;52.220;104.306;2023-12-22T09:46:59;136.98;;;63.10;;
68140;SDS011;54941;52.220;104.306;2023-12-22T09:49:29;119.80;;;51.50;;
68140;SDS011;54941;52.220;104.306;2023-12-22T09:51:55;130.40;;;54.85;;
68140;SDS011;54941;52.220;104.306;2023-12-22T09:54:22;142.40;;;60.42;;
68140;SDS011;54941;52.220;104.306;2023-12-22T09:56:49;147.18;;;62.53;;
68140;SDS011;54941;52.220;104.306;2023-12-22T09:59:16;154.63;;;70.95;;
68140;SDS011;54941;52.220;104.306;2023-12-22T10:01:44;166.43;;;75.65;;
68140;SDS011;54941;52.220;104.306;2023-12-22T10:04:14;134.30;;;57.55;;
68140;SDS011;54941;52.220;104.306;2023-12-22T10:06:40;150.98;;;58.75;;
68140;SDS011;54941;52.220;104.306;2023-12-22T10:09:06;145.07;;;63.10;;
68140;SDS011;54941;52.220;104.306;2023-12-22T10:11:33;155.85;;;70.38;;
68140;SDS011;54941;52.220;104.306;2023-12-22T10:14:01;152.80;;;65.40;;
68140;SDS011;54941;52.220;104.306;2023-12-22T10:16:28;166.00;;;69.95;;
68140;SDS011;54941;52.220;104.306;2023-12-22T10:18:55;142.73;;;63.15;;
68140;SDS011;54941;52.220;104.306;2023-12-22T10:21:22;140.98;;;61.70;;
68140;SDS011;54941;52.220;104.306;2023-12-22T10:23:49;141.45;;;62.83;;
68140;SDS011;54941;52.220;104.306;2023-12-22T10:26:15;145.27;;;59.15;;
68140;SDS011;54941;52.220;104.306;2023-12-22T10:28:41;139.85;;;61.05;;
68140;SDS011;54941;52.220;104.306;2023-12-22T10:31:07;146.48;;;63.42;;
68140;SDS011;54941;52.220;104.306;2023-12-22T10:33:34;145.80;;;65.28;;
68140;SDS011;54941;52.220;104.306;2023-12-22T10:36:00;135.20;;;61.38;;
68140;SDS011;54941;52.220;104.306;2023-12-22T10:38:29;141.52;;;59.70;;
68140;SDS011;54941;52.220;104.306;2023-12-22T10:40:58;131.65;;;54.97;;
68140;SDS011;54941;52.220;104.306;2023-12-22T10:43:25;133.50;;;55.88;;
68140;SDS011;54941;52.220;104.306;2023-12-22T10:45:51;134.60;;;65.60;;
68140;SDS011;54941;52.220;104.306;2023-12-22T10:48:17;140.88;;;59.20;;
68140;SDS011;54941;52.220;104.306;2023-12-22T10:50:44;140.48;;;60.40;;
68140;SDS011;54941;52.220;104.306;2023-12-22T10:53:10;144.68;;;58.75;;
68140;SDS011;54941;52.220;104.306;2023-12-22T10:55:38;144.80;;;60.15;;
68140;SDS011;54941;52.220;104.306;2023-12-22T10:58:05;139.88;;;58.15;;
68140;SDS011;54941;52.220;104.306;2023-12-22T11:00:31;142.05;;;64.72;;
68140;SDS011;54941;52.220;104.306;2023-12-22T11:02:59;146.85;;;66.32;;
68140;SDS011;54941;52.220;104.306;2023-12-22T11:05:27;133.43;;;58.28;;
68140;SDS011;54941;52.220;104.306;2023-12-22T11:07:55;152.82;;;62.65;;
68140;SDS011;54941;52.220;104.306;2023-12-22T11:10:25;145.15;;;65.05;;
68140;SDS011;54941;52.220;104.306;2023-12-22T11:12:54;145.75;;;65.57;;
68140;SDS011;54941;52.220;104.306;2023-12-22T11:15:22;152.07;;;65.22;;
68140;SDS011;54941;52.220;104.306;2023-12-22T11:17:50;134.85;;;55.20;;
68140;SDS011;54941;52.220;104.306;2023-12-22T11:20:17;119.47;;;57.85;;
68140;SDS011;54941;52.220;104.306;2023-12-22T11:22:44;141.70;;;61.85;;
68140;SDS011;54941;52.220;104.306;2023-12-22T11:25:10;138.60;;;56.55;;
68140;SDS011;54941;52.220;104.306;2023-12-22T11:27:37;135.63;;;59.40;;
68140;SDS011;54941;52.220;104.306;2023-12-22T11:30:06;137.15;;;63.53;;
68140;SDS011;54941;52.220;104.306;2023-12-22T11:32:33;139.70;;;57.95;;
68140;SDS011;54941;52.220;104.306;2023-12-22T11:34:59;134.98;;;63.33;;
68140;SDS011;54941;52.220;104.306;2023-12-22T11:37:26;129.43;;;53.28;;
68140;SDS011;54941;52.220;104.306;2023-12-22T11:39:52;132.75;;;61.25;;
68140;SDS011;54941;52.220;104.306;2023-12-22T11:42:18;130.20;;;55.58;;
68140;SDS011;54941;52.220;104.306;2023-12-22T11:44:48;126.13;;;51.85;;
68140;SDS011;54941;52.220;104.306;2023-12-22T11:47:16;115.18;;;48.63;;
68140;SDS011;54941;52.220;104.306;2023-12-22T11:49:47;125.90;;;54.25;;
68140;SDS011;54941;52.220;104.306;2023-12-22T11:52:15;128.10;;;55.85;;
68140;SDS011;54941;52.220;104.306;2023-12-22T11:54:46;131.77;;;55.95;;
68140;SDS011;54941;52.220;104.306;2023-12-22T11:57:31;121.00;;;50.58;;
68140;SDS011;54941;52.220;104.306;2023-12-22T12:00:00;116.72;;;48.42;;
68140;SDS011;54941;52.220;104.306;2023-12-22T12:02:31;116.50;;;49.97;;
68140;SDS011;54941;52.220;104.306;2023-12-22T12:04:58;127.70;;;53.30;;
68140;SDS011;54941;52.220;104.306;2023-12-22T12:07:40;123.70;;;54.88;;
68140;SDS011;54941;52.220;104.306;2023-12-22T12:12:33;115.82;;;46.13;;
68140;SDS011;54941;52.220;104.306;2023-12-22T12:15:04;103.78;;;45.08;;
68140;SDS011;54941;52.220;104.306;2023-12-22T12:17:34;114.22;;;48.42;;
68140;SDS011;54941;52.220;104.306;2023-12-22T12:20:04;103.65;;;43.92;;
68140;SDS011;54941;52.220;104.306;2023-12-22T12:22:32;104.43;;;46.83;;
68140;SDS011;54941;52.220;104.306;2023-12-22T12:24:58;115.47;;;46.38;;
68140;SDS011;54941;52.220;104.306;2023-12-22T12:27:24;110.40;;;52.13;;
68140;SDS011;54941;52.220;104.306;2023-12-22T12:29:50;114.80;;;44.90;;
68140;SDS011;54941;52.220;104.306;2023-12-22T12:32:17;111.88;;;45.42;;
68140;SDS011;54941;52.220;104.306;2023-12-22T12:34:44;109.80;;;46.60;;
68140;SDS011;54941;52.220;104.306;2023-12-22T12:37:12;111.03;;;47.13;;
68140;SDS011;54941;52.220;104.306;2023-12-22T12:39:38;110.97;;;51.80;;
68140;SDS011;54941;52.220;104.306;2023-12-22T12:42:07;110.45;;;46.25;;
68140;SDS011;54941;52.220;104.306;2023-12-22T12:44:33;108.57;;;45.00;;
68140;SDS011;54941;52.220;104.306;2023-12-22T12:47:10;108.15;;;45.70;;
68140;SDS011;54941;52.220;104.306;2023-12-22T12:49:37;127.95;;;58.08;;
68140;SDS011;54941;52.220;104.306;2023-12-22T12:52:05;106.85;;;47.03;;
68140;SDS011;54941;52.220;104.306;2023-12-22T12:54:31;117.32;;;47.42;;
68140;SDS011;54941;52.220;104.306;2023-12-22T12:56:57;112.65;;;46.13;;
68140;SDS011;54941;52.220;104.306;2023-12-22T12:59:23;113.53;;;46.17;;
68140;SDS011;54941;52.220;104.306;2023-12-22T13:01:50;126.53;;;55.08;;
68140;SDS011;54941;52.220;104.306;2023-12-22T13:04:16;116.28;;;51.72;;
68140;SDS011;54941;52.220;104.306;2023-12-22T13:06:43;117.00;;;47.08;;
68140;SDS011;54941;52.220;104.306;2023-12-22T13:09:11;114.28;;;49.78;;
68140;SDS011;54941;52.220;104.306;2023-12-22T13:11:38;104.88;;;49.08;;
68140;SDS011;54941;52.220;104.306;2023-12-22T13:14:05;108.20;;;50.83;;
68140;SDS011;54941;52.220;104.306;2023-12-22T13:16:32;114.18;;;50.80;;
68140;SDS011;54941;52.220;104.306;2023-12-22T13:18:59;118.03;;;51.75;;
68140;SDS011;54941;52.220;104.306;2023-12-22T13:21:26;115.60;;;47.72;;
68140;SDS011;54941;52.220;104.306;2023-12-22T13:24:09;108.80;;;50.65;;
68140;SDS011;54941;52.220;104.306;2023-12-22T13:26:38;107.65;;;46.90;;
68140;SDS011;54941;52.220;104.306;2023-12-22T13:29:05;112.53;;;51.53;;
68140;SDS011;54941;52.220;104.306;2023-12-22T13:31:32;119.57;;;54.95;;
68140;SDS011;54941;52.220;104.306;2023-12-22T13:33:58;107.28;;;45.25;;
68140;SDS011;54941;52.220;104.306;2023-12-22T13:36:25;107.68;;;46.08;;
68140;SDS011;54941;52.220;104.306;2023-12-22T13:38:51;113.85;;;47.70;;
68140;SDS011;54941;52.220;104.306;2023-12-22T13:41:19;108.47;;;43.53;;
68140;SDS011;54941;52.220;104.306;2023-12-22T13:43:46;110.05;;;50.60;;
68140;SDS011;54941;52.220;104.306;2023-12-22T13:46:12;124.60;;;53.67;;
68140;SDS011;54941;52.220;104.306;2023-12-22T13:48:38;113.22;;;53.85;;
68140;SDS011;54941;52.220;104.306;2023-12-22T13:51:05;115.45;;;46.20;;